Orbital elements of SL-14 R/B
| Launched | 10 May 1993 |
| Flight ended | – |
| Launch site | Plesetsk Missile and Space Complex, Russia |
| Owner | Commonwealth of Independent States (former USSR) |
| NORAD ID | 22652 |
| Date fetched |
Epoch osculation |
Inc. [°] |
Ecc. | RA asc node [hr] |
Arg Peri. [°] |
Mean anom [°] |
Mean motion [rev/day] |
Abs. mag |
| Date fetched |
Epoch osculation |
Inc. [°] |
Ecc. | RA asc node [hr] |
Arg Peri. [°] |
Mean anom [°] |
Mean motion [rev/day] |
Abs. mag |
| 2026 May 05 17:57 | 2026 May 05 02:11:17 | 82.5898 | 0.00084 | 23.4462 | 41.6346 | 126.5909 | 12.63199 | 7.243 |
| 2026 May 04 17:57 | 2026 Apr 30 15:09:57 | 82.5905 | 0.00085 | 23.6359 | 50.6472 | 126.5909 | 12.63199 | 7.243 |
| 2026 May 03 17:57 | 2026 Apr 30 15:09:57 | 82.5905 | 0.00085 | 23.6359 | 50.6472 | 126.5909 | 12.63199 | 7.243 |
| 2026 May 02 17:57 | 2026 Apr 30 15:09:57 | 82.5905 | 0.00085 | 23.6359 | 50.6472 | 126.5909 | 12.63199 | 7.243 |
| 2026 May 01 17:56 | 2026 Apr 30 15:09:57 | 82.5905 | 0.00085 | 23.6359 | 50.6472 | 126.5909 | 12.63199 | 7.243 |
| 2026 Apr 30 17:56 | 2026 Apr 30 15:09:57 | 82.5905 | 0.00085 | 23.6359 | 50.6472 | 126.5909 | 12.63199 | 7.243 |
| 2026 Apr 29 17:57 | 2026 Apr 24 03:47:35 | 82.5914 | 0.00086 | 23.9114 | 63.4934 | 126.5909 | 12.63199 | 7.243 |
| 2026 Apr 28 17:56 | 2026 Apr 24 03:47:35 | 82.5914 | 0.00086 | 23.9114 | 63.4934 | 126.5909 | 12.63199 | 7.243 |
| 2026 Apr 27 17:58 | 2026 Apr 24 03:47:35 | 82.5914 | 0.00086 | 23.9114 | 63.4934 | 126.5909 | 12.63199 | 7.243 |
| 2026 Apr 26 17:58 | 2026 Apr 24 03:47:35 | 82.5914 | 0.00086 | 23.9114 | 63.4934 | 126.5909 | 12.63199 | 7.243 |
| 2026 Apr 25 17:58 | 2026 Apr 24 03:47:35 | 82.5914 | 0.00086 | 23.9114 | 63.4934 | 126.5909 | 12.63199 | 7.243 |
| 2026 Apr 24 17:59 | 2026 Apr 24 03:47:35 | 82.5914 | 0.00086 | 23.9114 | 63.4934 | 126.5909 | 12.63199 | 7.243 |
| 2026 Apr 23 17:57 | 2026 Apr 19 11:44:43 | 82.5920 | 0.00087 | 0.1100 | 72.7860 | 126.5909 | 12.63199 | 7.243 |
| 2026 Apr 22 17:57 | 2026 Apr 19 11:44:43 | 82.5920 | 0.00087 | 0.1100 | 72.7860 | 126.5909 | 12.63199 | 7.243 |
| 2026 Apr 21 17:57 | 2026 Apr 19 11:44:43 | 82.5920 | 0.00087 | 0.1100 | 72.7860 | 126.5909 | 12.63199 | 7.243 |
| 2026 Apr 20 17:57 | 2026 Apr 19 11:44:43 | 82.5920 | 0.00087 | 0.1100 | 72.7860 | 126.5909 | 12.63199 | 7.243 |
| 2026 Apr 19 17:58 | 2026 Apr 19 11:44:43 | 82.5920 | 0.00087 | 0.1100 | 72.7860 | 126.5909 | 12.63199 | 7.243 |
| 2026 Apr 18 17:56 | 2026 Apr 13 03:34:19 | 82.5925 | 0.00087 | 0.3797 | 85.2930 | 126.5909 | 12.63199 | 7.243 |
| 2026 Apr 16 17:57 | 2026 Apr 13 03:34:19 | 82.5925 | 0.00087 | 0.3797 | 85.2930 | 126.5909 | 12.63199 | 7.243 |
| 2026 Apr 14 17:57 | 2026 Apr 13 03:34:19 | 82.5925 | 0.00087 | 0.3797 | 85.2930 | 126.5909 | 12.63199 | 7.243 |
| 2026 Apr 13 17:57 | 2026 Apr 13 03:34:19 | 82.5925 | 0.00087 | 0.3797 | 85.2930 | 126.5909 | 12.63199 | 7.243 |
| 2026 Apr 12 17:57 | 2026 Apr 08 05:43:10 | 82.5928 | 0.00087 | 0.5886 | 95.0602 | 126.5909 | 12.63199 | 7.243 |
| 2026 Apr 11 17:57 | 2026 Apr 08 05:43:10 | 82.5928 | 0.00087 | 0.5886 | 95.0602 | 126.5909 | 12.63199 | 7.243 |
| 2026 Apr 10 17:58 | 2026 Apr 08 05:43:10 | 82.5928 | 0.00087 | 0.5886 | 95.0602 | 126.5909 | 12.63199 | 7.243 |
| 2026 Apr 09 18:01 | 2026 Apr 08 05:43:10 | 82.5928 | 0.00087 | 0.5886 | 95.0602 | 126.5909 | 12.63199 | 7.243 |
| 2026 Apr 08 17:57 | 2026 Apr 08 05:43:10 | 82.5928 | 0.00087 | 0.5886 | 95.0602 | 126.5909 | 12.63199 | 7.243 |